Time;durP1;ratioP1;P1;durP2;ratioP2;P2;SDS_P1;SDS_P2;PMS_P1;PMS_P2;Temp;Humidity;BMP_temperature;BMP_pressure;BME280_temperature;BME280_humidity;BME280_pressure;Samples;Min_cycle;Max_cycle;Signal;HPM_P1;HPM_P2
2022/11/14 00:01:28;;;;;;;1.90;1.45;;;;;;;;;;6122665;23;20045;-70
2022/11/14 00:03:58;;;;;;;4.82;1.70;;;;;;;;;;6124029;23;20090;-70
2022/11/14 00:06:27;;;;;;;2.78;1.20;;;;;;;;;;6123354;23;20022;-70
2022/11/14 00:08:55;;;;;;;2.00;1.58;;;;;;;;;;6124113;23;20050;-70
2022/11/14 00:11:23;;;;;;;4.70;2.00;;;;;;;;;;6122573;23;20061;-70
2022/11/14 00:13:51;;;;;;;4.72;2.70;;;;;;;;;;6124089;23;20029;-70
2022/11/14 00:16:20;;;;;;;3.60;1.80;;;;;;;;;;6123112;23;20049;-70
2022/11/14 00:18:48;;;;;;;5.13;2.17;;;;;;;;;;6124010;23;20022;-70
2022/11/14 00:21:18;;;;;;;3.45;1.30;;;;;;;;;;6123056;23;20029;-71
2022/11/14 00:23:46;;;;;;;3.42;1.75;;;;;;;;;;6124204;23;20075;-70
2022/11/14 00:26:14;;;;;;;3.13;1.40;;;;;;;;;;6122160;23;20534;-70
2022/11/14 00:28:43;;;;;;;4.18;2.03;;;;;;;;;;6123108;23;20093;-70
2022/11/14 00:31:11;;;;;;;3.22;1.52;;;;;;;;;;6123284;23;20014;-70
2022/11/14 00:33:40;;;;;;;2.75;1.20;;;;;;;;;;6123372;23;20439;-70
2022/11/14 00:36:08;;;;;;;2.58;1.52;;;;;;;;;;6123160;23;20344;-70
2022/11/14 00:38:38;;;;;;;3.55;1.45;;;;;;;;;;6120425;23;20017;-70
2022/11/14 00:41:06;;;;;;;3.33;1.80;;;;;;;;;;6093965;23;20491;-70
2022/11/14 00:43:35;;;;;;;1.85;1.33;;;;;;;;;;6093281;23;20023;-72
2022/11/14 00:46:03;;;;;;;5.80;2.30;;;;;;;;;;6094119;23;20466;-70
2022/11/14 00:48:31;;;;;;;2.92;1.25;;;;;;;;;;6093952;23;20101;-70
2022/11/14 00:51:00;;;;;;;2.72;1.88;;;;;;;;;;6094205;23;20101;-70
2022/11/14 00:53:28;;;;;;;10.18;2.13;;;;;;;;;;6094203;23;20026;-70
2022/11/14 00:55:58;;;;;;;4.57;1.73;;;;;;;;;;6093293;23;20109;-70
2022/11/14 00:58:26;;;;;;;2.70;1.70;;;;;;;;;;6094631;23;20104;-70
2022/11/14 01:00:55;;;;;;;2.58;1.70;;;;;;;;;;6093987;23;20066;-70
2022/11/14 01:03:23;;;;;;;1.60;0.88;;;;;;;;;;6094118;23;20429;-70
2022/11/14 01:05:52;;;;;;;2.33;2.05;;;;;;;;;;6094717;23;20032;-70
2022/11/14 01:08:20;;;;;;;2.28;1.58;;;;;;;;;;6095153;23;20031;-70
2022/11/14 01:10:50;;;;;;;3.40;1.25;;;;;;;;;;6095345;23;20022;-70
2022/11/14 01:13:20;;;;;;;5.50;1.60;;;;;;;;;;6095617;23;20033;-70
2022/11/14 01:15:51;;;;;;;2.95;1.23;;;;;;;;;;6095851;23;20093;-70
2022/11/14 01:18:20;;;;;;;3.67;1.42;;;;;;;;;;6096132;23;20019;-70
2022/11/14 01:20:49;;;;;;;1.65;0.82;;;;;;;;;;6094561;23;20029;-70
2022/11/14 01:23:17;;;;;;;1.10;1.00;;;;;;;;;;6095471;23;20039;-70
2022/11/14 01:25:46;;;;;;;1.33;1.23;;;;;;;;;;6095609;23;20019;-70
2022/11/14 01:28:15;;;;;;;3.80;1.83;;;;;;;;;;6096620;23;20022;-70
2022/11/14 01:30:45;;;;;;;2.63;1.75;;;;;;;;;;6095462;23;20351;-70
2022/11/14 01:33:13;;;;;;;2.83;1.45;;;;;;;;;;6096008;23;20032;-70
2022/11/14 01:35:41;;;;;;;3.30;1.65;;;;;;;;;;6094164;23;20097;-70
2022/11/14 01:38:12;;;;;;;3.17;1.65;;;;;;;;;;6095171;23;20097;-70
2022/11/14 01:40:42;;;;;;;1.00;0.65;;;;;;;;;;6122668;23;20400;-71
2022/11/14 01:43:27;;;;;;;3.08;1.63;;;;;;;;;;6124862;23;20105;-71
2022/11/14 01:45:57;;;;;;;4.75;2.05;;;;;;;;;;6125297;23;20343;-70
2022/11/14 01:48:27;;;;;;;4.40;1.85;;;;;;;;;;6124787;23;20025;-70
2022/11/14 01:50:57;;;;;;;1.85;1.35;;;;;;;;;;6123045;23;20028;-70
2022/11/14 01:53:26;;;;;;;4.30;1.70;;;;;;;;;;6124886;23;20104;-70
2022/11/14 01:55:55;;;;;;;4.43;1.65;;;;;;;;;;6125167;23;20018;-69
2022/11/14 01:58:24;;;;;;;2.05;1.00;;;;;;;;;;6124567;23;20022;-70
2022/11/14 02:00:52;;;;;;;2.78;1.42;;;;;;;;;;6125213;23;20034;-70
2022/11/14 02:03:22;;;;;;;2.33;1.60;;;;;;;;;;6123883;23;20036;-70
2022/11/14 02:05:51;;;;;;;3.55;1.73;;;;;;;;;;6124820;23;20050;-70
2022/11/14 02:08:19;;;;;;;2.60;0.95;;;;;;;;;;6124094;23;20024;-70
2022/11/14 02:10:48;;;;;;;1.48;1.30;;;;;;;;;;6123825;23;20033;-70
2022/11/14 02:13:16;;;;;;;2.08;0.93;;;;;;;;;;6124462;23;20021;-70
2022/11/14 02:15:44;;;;;;;1.63;1.35;;;;;;;;;;6124507;23;20017;-70
2022/11/14 02:18:13;;;;;;;1.52;1.08;;;;;;;;;;6124389;23;20022;-70
2022/11/14 02:20:42;;;;;;;1.90;1.55;;;;;;;;;;6124435;23;20022;-70
2022/11/14 02:23:12;;;;;;;4.60;2.05;;;;;;;;;;6124122;23;20029;-70
2022/11/14 02:25:40;;;;;;;1.00;0.95;;;;;;;;;;6125126;23;20018;-70
2022/11/14 02:28:10;;;;;;;2.17;1.10;;;;;;;;;;6123180;23;20100;-70
2022/11/14 02:30:39;;;;;;;5.65;2.38;;;;;;;;;;6124009;23;20049;-70
2022/11/14 02:33:07;;;;;;;3.35;1.83;;;;;;;;;;6124845;23;20018;-70
2022/11/14 02:35:38;;;;;;;2.65;2.05;;;;;;;;;;6125231;23;20025;-70
2022/11/14 02:38:08;;;;;;;1.52;1.42;;;;;;;;;;6123003;23;20028;-70
2022/11/14 02:40:36;;;;;;;5.90;2.38;;;;;;;;;;6123804;23;20056;-70
2022/11/14 02:43:05;;;;;;;1.83;1.23;;;;;;;;;;6124621;23;20018;-70
2022/11/14 02:45:33;;;;;;;1.83;1.10;;;;;;;;;;6124677;23;20112;-70
2022/11/14 02:48:01;;;;;;;4.28;1.30;;;;;;;;;;6124267;23;20339;-70
2022/11/14 02:50:30;;;;;;;1.80;1.15;;;;;;;;;;6123607;23;20022;-70
2022/11/14 02:52:58;;;;;;;1.38;1.15;;;;;;;;;;6124972;23;20026;-69
2022/11/14 02:55:28;;;;;;;3.50;1.40;;;;;;;;;;6124789;23;20492;-69
2022/11/14 02:57:56;;;;;;;3.38;1.75;;;;;;;;;;6122488;23;20464;-69
2022/11/14 03:00:24;;;;;;;1.65;1.02;;;;;;;;;;6123878;23;20026;-69
2022/11/14 03:02:53;;;;;;;4.93;1.70;;;;;;;;;;6123003;23;20022;-69
2022/11/14 03:05:22;;;;;;;1.85;0.93;;;;;;;;;;6124084;23;20032;-71
2022/11/14 03:07:53;;;;;;;5.07;1.60;;;;;;;;;;6124643;23;20025;-69
2022/11/14 03:10:22;;;;;;;3.45;2.45;;;;;;;;;;6123248;23;20344;-70
2022/11/14 03:12:55;;;;;;;3.92;1.55;;;;;;;;;;6124102;23;20061;-69
2022/11/14 03:15:23;;;;;;;2.20;1.23;;;;;;;;;;6124690;23;20029;-69
2022/11/14 03:17:52;;;;;;;4.13;2.03;;;;;;;;;;6124338;23;20029;-69
2022/11/14 03:20:20;;;;;;;3.35;1.55;;;;;;;;;;6124357;23;20025;-68
2022/11/14 03:22:48;;;;;;;2.47;0.98;;;;;;;;;;6123228;23;20018;-70
2022/11/14 03:25:17;;;;;;;4.13;1.65;;;;;;;;;;6124519;23;20032;-70
2022/11/14 03:27:45;;;;;;;2.53;1.20;;;;;;;;;;6124060;23;20018;-69
2022/11/14 03:30:15;;;;;;;0.98;0.85;;;;;;;;;;6122762;23;20026;-71
2022/11/14 03:32:43;;;;;;;0.68;0.63;;;;;;;;;;6123815;23;20022;-70
2022/11/14 03:35:12;;;;;;;0.63;0.57;;;;;;;;;;6122853;23;20026;-71
2022/11/14 03:37:40;;;;;;;3.88;1.85;;;;;;;;;;6124721;23;20022;-70
2022/11/14 03:40:09;;;;;;;2.08;0.60;;;;;;;;;;6123304;23;20028;-70
2022/11/14 03:42:37;;;;;;;2.67;1.73;;;;;;;;;;6122886;23;20025;-70
2022/11/14 03:45:06;;;;;;;1.50;1.05;;;;;;;;;;6124124;23;20105;-70
2022/11/14 03:47:36;;;;;;;1.60;0.70;;;;;;;;;;6124194;23;20025;-70
2022/11/14 03:50:05;;;;;;;2.72;1.50;;;;;;;;;;6123582;23;20018;-70
2022/11/14 03:52:33;;;;;;;3.80;1.60;;;;;;;;;;6123432;23;20895;-70
2022/11/14 03:55:01;;;;;;;2.33;1.13;;;;;;;;;;6123249;23;20026;-70
2022/11/14 03:57:30;;;;;;;1.20;0.98;;;;;;;;;;6123780;23;20026;-70
2022/11/14 03:59:58;;;;;;;1.05;0.88;;;;;;;;;;6123998;23;20022;-70
2022/11/14 04:02:27;;;;;;;0.93;0.70;;;;;;;;;;6123219;23;20028;-70
2022/11/14 04:04:56;;;;;;;1.70;1.33;;;;;;;;;;6123782;23;20052;-70
2022/11/14 04:07:25;;;;;;;0.70;0.68;;;;;;;;;;6123289;23;20036;-71
2022/11/14 04:09:53;;;;;;;1.05;0.95;;;;;;;;;;6123902;23;20329;-70
2022/11/14 04:12:22;;;;;;;1.15;0.60;;;;;;;;;;6123293;23;20041;-70
2022/11/14 04:14:50;;;;;;;1.05;0.77;;;;;;;;;;6123600;23;20400;-70
2022/11/14 04:17:18;;;;;;;1.02;0.70;;;;;;;;;;6123836;23;20419;-70
2022/11/14 04:19:47;;;;;;;1.52;0.82;;;;;;;;;;6123387;23;20097;-70
2022/11/14 04:22:16;;;;;;;4.00;1.50;;;;;;;;;;6123116;23;20030;-70
2022/11/14 04:24:45;;;;;;;2.47;1.98;;;;;;;;;;6122947;23;20432;-70
2022/11/14 04:27:13;;;;;;;2.53;1.02;;;;;;;;;;6123510;23;20018;-70
2022/11/14 04:29:41;;;;;;;1.70;1.17;;;;;;;;;;6123590;23;20112;-70
2022/11/14 04:32:10;;;;;;;3.90;1.50;;;;;;;;;;6123189;23;20022;-70
2022/11/14 04:34:38;;;;;;;1.13;1.00;;;;;;;;;;6123940;23;20048;-70
2022/11/14 04:37:06;;;;;;;5.15;0.90;;;;;;;;;;6124479;23;20346;-70
2022/11/14 04:39:36;;;;;;;1.00;0.70;;;;;;;;;;6121547;23;20032;-70
2022/11/14 04:42:04;;;;;;;4.53;1.63;;;;;;;;;;6124284;23;20030;-70
2022/11/14 04:44:32;;;;;;;2.17;1.67;;;;;;;;;;6125327;23;20097;-70
2022/11/14 04:47:01;;;;;;;5.53;0.93;;;;;;;;;;6125606;23;20469;-70
2022/11/14 04:49:29;;;;;;;1.13;0.98;;;;;;;;;;6125290;23;20181;-70
2022/11/14 04:51:57;;;;;;;3.15;1.65;;;;;;;;;;6125152;23;20022;-70
2022/11/14 04:54:26;;;;;;;1.23;0.80;;;;;;;;;;6124880;23;20084;-70
2022/11/14 04:56:55;;;;;;;1.05;0.95;;;;;;;;;;6125661;23;20024;-70
2022/11/14 04:59:24;;;;;;;3.00;2.20;;;;;;;;;;6124502;23;20018;-70
2022/11/14 05:01:52;;;;;;;1.33;1.17;;;;;;;;;;6124722;23;20420;-71
2022/11/14 05:04:21;;;;;;;1.67;1.35;;;;;;;;;;6125226;23;20320;-70
2022/11/14 05:06:49;;;;;;;1.35;1.17;;;;;;;;;;6125466;23;20463;-70
2022/11/14 05:09:17;;;;;;;1.70;1.60;;;;;;;;;;6123100;23;20347;-70
2022/11/14 05:11:46;;;;;;;1.08;0.93;;;;;;;;;;6124631;23;20025;-70
2022/11/14 05:14:16;;;;;;;1.13;1.02;;;;;;;;;;6125116;23;20101;-70
2022/11/14 05:16:44;;;;;;;2.38;1.48;;;;;;;;;;6125314;23;20057;-71
2022/11/14 05:19:12;;;;;;;2.50;1.25;;;;;;;;;;6124423;23;20018;-70
2022/11/14 05:21:41;;;;;;;1.70;1.60;;;;;;;;;;6123804;23;20093;-71
2022/11/14 05:24:09;;;;;;;2.60;1.05;;;;;;;;;;6125415;23;20020;-70
2022/11/14 05:26:38;;;;;;;1.60;1.10;;;;;;;;;;6123389;23;20538;-70
2022/11/14 05:29:06;;;;;;;1.63;1.02;;;;;;;;;;6123839;23;20045;-70
2022/11/14 05:31:36;;;;;;;1.27;1.08;;;;;;;;;;6124413;23;20346;-70
2022/11/14 05:34:04;;;;;;;3.83;1.83;;;;;;;;;;6123289;23;20324;-70
2022/11/14 05:36:33;;;;;;;4.10;1.77;;;;;;;;;;6124428;23;20068;-70
2022/11/14 05:39:01;;;;;;;2.28;1.02;;;;;;;;;;6124590;23;20340;-69
2022/11/14 05:41:30;;;;;;;1.73;1.33;;;;;;;;;;6124123;23;20093;-70
2022/11/14 05:43:58;;;;;;;1.95;1.17;;;;;;;;;;6124180;23;20022;-70
2022/11/14 05:46:26;;;;;;;1.63;1.00;;;;;;;;;;6123114;23;20029;-70
2022/11/14 05:48:56;;;;;;;2.58;0.95;;;;;;;;;;6124651;23;20018;-70
2022/11/14 05:51:24;;;;;;;4.15;1.63;;;;;;;;;;6122847;23;20018;-70
2022/11/14 05:53:53;;;;;;;1.08;0.98;;;;;;;;;;6123622;23;20201;-70
2022/11/14 05:56:22;;;;;;;1.20;1.10;;;;;;;;;;6124917;23;20447;-70
2022/11/14 05:58:50;;;;;;;3.25;1.85;;;;;;;;;;6122927;23;20018;-70
2022/11/14 06:01:19;;;;;;;1.98;0.93;;;;;;;;;;6123881;23;20026;-70
2022/11/14 06:03:48;;;;;;;5.35;1.40;;;;;;;;;;6124886;23;20477;-70
2022/11/14 06:06:19;;;;;;;2.08;0.80;;;;;;;;;;6122591;23;20022;-70
2022/11/14 06:08:47;;;;;;;3.28;1.35;;;;;;;;;;6124461;23;20057;-72
2022/11/14 06:11:17;;;;;;;1.70;1.08;;;;;;;;;;6123889;23;20336;-70
2022/11/14 06:13:46;;;;;;;0.93;0.75;;;;;;;;;;6124566;23;20024;-70
2022/11/14 06:16:15;;;;;;;2.03;1.05;;;;;;;;;;6122004;23;20028;-71
2022/11/14 06:18:43;;;;;;;1.35;0.98;;;;;;;;;;6125201;23;20038;-69
2022/11/14 06:21:12;;;;;;;1.05;0.70;;;;;;;;;;6120784;23;20395;-71
2022/11/14 06:23:42;;;;;;;2.25;0.98;;;;;;;;;;6122183;23;20029;-70
2022/11/14 06:26:13;;;;;;;6.45;2.42;;;;;;;;;;6122528;23;20053;-70
2022/11/14 06:28:42;;;;;;;1.42;1.10;;;;;;;;;;6121768;23;20024;-70
2022/11/14 06:31:10;;;;;;;2.22;0.93;;;;;;;;;;6123398;23;20036;-70
2022/11/14 06:33:38;;;;;;;1.85;0.80;;;;;;;;;;6123654;23;20018;-71
2022/11/14 06:36:07;;;;;;;2.47;1.52;;;;;;;;;;6123027;23;20384;-70
2022/11/14 06:38:37;;;;;;;1.27;0.70;;;;;;;;;;6123907;23;20022;-69
2022/11/14 06:41:07;;;;;;;0.65;0.65;;;;;;;;;;6122421;23;20049;-71
2022/11/14 06:43:35;;;;;;;2.85;1.60;;;;;;;;;;6124115;23;20511;-70
2022/11/14 06:46:04;;;;;;;1.65;1.23;;;;;;;;;;6124180;23;20028;-70
2022/11/14 06:48:33;;;;;;;1.17;0.90;;;;;;;;;;6122691;23;20034;-70
2022/11/14 06:51:02;;;;;;;0.60;0.60;;;;;;;;;;6123570;23;20119;-70
2022/11/14 06:53:31;;;;;;;1.50;1.38;;;;;;;;;;6123598;23;20053;-70
2022/11/14 06:56:00;;;;;;;1.98;1.08;;;;;;;;;;6124856;23;20026;-70
2022/11/14 06:58:30;;;;;;;1.02;0.90;;;;;;;;;;6124012;23;20022;-70
2022/11/14 07:01:03;;;;;;;1.23;0.90;;;;;;;;;;6124540;23;20058;-70
2022/11/14 07:03:31;;;;;;;1.00;0.90;;;;;;;;;;6123877;23;20444;-69
2022/11/14 07:06:00;;;;;;;1.45;1.15;;;;;;;;;;6122727;23;20018;-70
2022/11/14 07:08:29;;;;;;;0.98;0.88;;;;;;;;;;6123977;23;20022;-70
2022/11/14 07:11:02;;;;;;;1.40;0.77;;;;;;;;;;6121855;23;20489;-71
2022/11/14 07:13:33;;;;;;;0.70;0.70;;;;;;;;;;6122847;23;20064;-70
2022/11/14 07:16:01;;;;;;;0.85;0.85;;;;;;;;;;6124265;23;20030;-70
2022/11/14 07:18:30;;;;;;;0.50;0.50;;;;;;;;;;6123509;23;20455;-70
2022/11/14 07:21:00;;;;;;;1.92;1.02;;;;;;;;;;6121181;23;20457;-70
2022/11/14 07:23:29;;;;;;;3.42;0.70;;;;;;;;;;6122081;23;20080;-70
2022/11/14 07:26:01;;;;;;;1.35;0.95;;;;;;;;;;6122942;23;20061;-70
2022/11/14 07:28:30;;;;;;;1.02;0.93;;;;;;;;;;6121825;23;20045;-70
2022/11/14 07:31:03;;;;;;;2.28;0.88;;;;;;;;;;6122635;23;20017;-70
2022/11/14 07:33:31;;;;;;;0.60;0.60;;;;;;;;;;6123910;23;20105;-70
2022/11/14 07:36:00;;;;;;;1.38;0.73;;;;;;;;;;6123619;23;20025;-70
2022/11/14 07:38:28;;;;;;;2.13;1.10;;;;;;;;;;6123643;23;20407;-70
2022/11/14 07:40:58;;;;;;;0.85;0.38;;;;;;;;;;6123643;23;20556;-70
2022/11/14 07:43:28;;;;;;;1.33;0.70;;;;;;;;;;6124077;23;20030;-70
2022/11/14 07:46:01;;;;;;;0.70;0.70;;;;;;;;;;6124323;23;20045;-70
2022/11/14 07:48:29;;;;;;;1.30;0.82;;;;;;;;;;6124302;23;20066;-70
2022/11/14 07:51:00;;;;;;;1.67;1.20;;;;;;;;;;6123029;23;20022;-70
2022/11/14 07:53:28;;;;;;;0.65;0.65;;;;;;;;;;6124217;23;20448;-70
2022/11/14 07:55:57;;;;;;;2.03;1.17;;;;;;;;;;6123899;23;20360;-72
2022/11/14 07:58:26;;;;;;;0.60;0.60;;;;;;;;;;6124106;23;20025;-70
2022/11/14 08:00:54;;;;;;;1.23;1.13;;;;;;;;;;6123682;23;20081;-70
2022/11/14 08:03:25;;;;;;;1.33;1.13;;;;;;;;;;6123548;23;20018;-70
2022/11/14 08:06:00;;;;;;;4.35;0.63;;;;;;;;;;6123683;23;20104;-70
2022/11/14 08:08:29;;;;;;;0.95;0.80;;;;;;;;;;6123500;23;20022;-70
2022/11/14 08:10:59;;;;;;;1.42;1.30;;;;;;;;;;6123240;23;20471;-70
2022/11/14 08:13:29;;;;;;;1.95;0.82;;;;;;;;;;6124230;23;20022;-71
2022/11/14 08:16:00;;;;;;;2.08;1.42;;;;;;;;;;6123792;23;20455;-70
2022/11/14 08:18:30;;;;;;;2.22;1.00;;;;;;;;;;6122670;23;20036;-70
2022/11/14 08:20:59;;;;;;;2.33;1.05;;;;;;;;;;6120119;23;20020;-71
2022/11/14 08:23:28;;;;;;;1.38;0.90;;;;;;;;;;6123884;23;20061;-70
2022/11/14 08:25:59;;;;;;;2.67;0.88;;;;;;;;;;6122407;23;20026;-69
2022/11/14 08:28:28;;;;;;;0.95;0.77;;;;;;;;;;6120885;23;20030;-70
2022/11/14 08:30:59;;;;;;;1.08;0.90;;;;;;;;;;6122207;23;20040;-70
2022/11/14 08:33:29;;;;;;;1.27;1.05;;;;;;;;;;6123758;23;20028;-70
2022/11/14 08:36:02;;;;;;;2.25;0.63;;;;;;;;;;6122990;23;20460;-70
2022/11/14 08:38:31;;;;;;;1.73;1.63;;;;;;;;;;6123086;23;20025;-70
2022/11/14 08:41:00;;;;;;;2.03;1.00;;;;;;;;;;6121676;23;20393;-70
2022/11/14 08:43:29;;;;;;;2.22;1.05;;;;;;;;;;6123633;23;20096;-70
2022/11/14 08:45:58;;;;;;;1.98;0.85;;;;;;;;;;6123465;23;20069;-70
2022/11/14 08:48:30;;;;;;;1.85;0.68;;;;;;;;;;6118088;23;20029;-70
2022/11/14 08:51:04;;;;;;;1.40;1.27;;;;;;;;;;6120007;23;20018;-70
2022/11/14 08:53:33;;;;;;;2.97;1.30;;;;;;;;;;6118903;23;20018;-70
2022/11/14 08:56:02;;;;;;;1.58;1.15;;;;;;;;;;6121017;23;20053;-70
2022/11/14 08:58:30;;;;;;;1.05;0.60;;;;;;;;;;6121037;23;20050;-70
2022/11/14 09:01:01;;;;;;;5.13;1.20;;;;;;;;;;6121013;23;20022;-70
2022/11/14 09:03:29;;;;;;;2.30;1.13;;;;;;;;;;6121913;23;20105;-70
2022/11/14 09:05:59;;;;;;;0.77;0.77;;;;;;;;;;6118983;23;20022;-70
2022/11/14 09:08:29;;;;;;;2.58;1.10;;;;;;;;;;6118063;23;20113;-71
2022/11/14 09:11:01;;;;;;;1.80;1.13;;;;;;;;;;6121180;23;20030;-70
2022/11/14 09:13:33;;;;;;;1.50;1.00;;;;;;;;;;6123481;23;20022;-70
2022/11/14 09:16:01;;;;;;;2.08;1.00;;;;;;;;;;6123172;23;20022;-70
2022/11/14 09:18:30;;;;;;;2.20;2.00;;;;;;;;;;6123754;23;20026;-70
2022/11/14 09:21:03;;;;;;;1.05;0.70;;;;;;;;;;6121650;23;20030;-70
2022/11/14 09:23:33;;;;;;;3.00;1.50;;;;;;;;;;6122850;23;20022;-70
2022/11/14 09:26:04;;;;;;;2.97;2.22;;;;;;;;;;6123061;23;20022;-70
2022/11/14 09:28:32;;;;;;;3.58;1.27;;;;;;;;;;6123114;23;20044;-70
2022/11/14 09:31:02;;;;;;;2.72;1.60;;;;;;;;;;6124107;23;20018;-70
2022/11/14 09:33:30;;;;;;;2.50;1.35;;;;;;;;;;6125681;23;20030;-70
2022/11/14 09:35:59;;;;;;;3.22;1.65;;;;;;;;;;6123285;23;20026;-70
2022/11/14 09:38:28;;;;;;;2.00;0.98;;;;;;;;;;6125074;23;20037;-70
2022/11/14 09:41:11;;;;;;;2.40;1.90;;;;;;;;;;6124397;23;20090;-70
2022/11/14 09:43:47;;;;;;;1.35;1.25;;;;;;;;;;6124539;23;20022;-70
2022/11/14 09:46:19;;;;;;;1.75;1.40;;;;;;;;;;6123718;23;20026;-70
2022/11/14 09:48:48;;;;;;;1.63;1.52;;;;;;;;;;6123792;23;20026;-71
2022/11/14 09:51:18;;;;;;;5.57;2.63;;;;;;;;;;6123875;23;20355;-70
2022/11/14 09:53:48;;;;;;;1.17;0.93;;;;;;;;;;6125746;23;20450;-71
2022/11/14 09:56:21;;;;;;;1.80;1.33;;;;;;;;;;6124932;23;20093;-71
2022/11/14 09:58:50;;;;;;;3.53;1.38;;;;;;;;;;6124471;23;20129;-71
2022/11/14 10:01:31;;;;;;;4.75;2.22;;;;;;;;;;6124456;23;20475;-71
2022/11/14 10:04:04;;;;;;;7.28;2.72;;;;;;;;;;6125199;23;20026;-70
2022/11/14 10:06:41;;;;;;;3.85;1.38;;;;;;;;;;6125252;23;20097;-71
2022/11/14 10:09:22;;;;;;;16.77;2.67;;;;;;;;;;6123348;23;20262;-70
2022/11/14 10:12:04;;;;;;;4.72;2.35;;;;;;;;;;6123138;23;20034;-69
2022/11/14 10:14:42;;;;;;;7.97;2.97;;;;;;;;;;6123670;23;20729;-71
2022/11/14 10:17:17;;;;;;;3.08;2.58;;;;;;;;;;6123301;23;20075;-70
2022/11/14 10:19:48;;;;;;;4.63;1.83;;;;;;;;;;6124774;23;20022;-71
2022/11/14 10:22:22;;;;;;;10.73;2.78;;;;;;;;;;6123522;23;20040;-70
2022/11/14 10:24:57;;;;;;;5.00;2.38;;;;;;;;;;6124451;23;20026;-71
2022/11/14 10:27:28;;;;;;;7.47;2.42;;;;;;;;;;6124543;23;20034;-71
2022/11/14 10:30:05;;;;;;;3.53;2.42;;;;;;;;;;6124661;23;20129;-70
2022/11/14 10:32:43;;;;;;;4.07;1.42;;;;;;;;;;6123863;23;20376;-71
2022/11/14 10:35:14;;;;;;;3.58;1.98;;;;;;;;;;6124276;23;20026;-71
2022/11/14 10:37:48;;;;;;;6.68;1.67;;;;;;;;;;6121078;23;20026;-71
2022/11/14 10:40:20;;;;;;;1.77;1.37;;;;;;;;;;6123913;23;20026;-71
2022/11/14 10:42:52;;;;;;;2.80;2.08;;;;;;;;;;6122980;23;20033;-71
2022/11/14 10:45:24;;;;;;;2.30;1.50;;;;;;;;;;6123750;23;20060;-71
2022/11/14 10:47:55;;;;;;;2.42;1.45;;;;;;;;;;6124012;23;20018;-72
2022/11/14 10:50:25;;;;;;;1.52;1.13;;;;;;;;;;6121003;23;20455;-71
2022/11/14 10:52:57;;;;;;;3.47;1.80;;;;;;;;;;6124446;23;20026;-71
2022/11/14 10:55:26;;;;;;;1.85;0.85;;;;;;;;;;6124884;23;20110;-71
2022/11/14 10:58:16;;;;;;;6.97;2.28;;;;;;;;;;6123959;23;20066;-72
2022/11/14 11:00:44;;;;;;;6.38;1.90;;;;;;;;;;6123421;23;20060;-71
2022/11/14 11:03:13;;;;;;;2.92;1.60;;;;;;;;;;6124591;23;20024;-72
2022/11/14 11:05:49;;;;;;;1.95;1.70;;;;;;;;;;6124550;23;20049;-72
2022/11/14 11:11:31;;;;;;;1.08;0.95;;;;;;;;;;6121970;23;20409;-72
2022/11/14 11:14:01;;;;;;;1.95;1.65;;;;;;;;;;6124753;23;20109;-71
2022/11/14 11:16:30;;;;;;;5.45;1.20;;;;;;;;;;6123906;23;20033;-72
2022/11/14 11:19:14;;;;;;;4.85;2.40;;;;;;;;;;6121161;23;20030;-72
2022/11/14 11:21:50;;;;;;;2.42;1.63;;;;;;;;;;6123675;23;20056;-72
2022/11/14 11:24:32;;;;;;;1.85;1.02;;;;;;;;;;6123496;23;20022;-72
2022/11/14 11:27:14;;;;;;;5.32;1.92;;;;;;;;;;6123787;23;20061;-72
2022/11/14 11:29:44;;;;;;;2.97;1.50;;;;;;;;;;6124206;23;20018;-71
2022/11/14 11:32:24;;;;;;;2.47;1.60;;;;;;;;;;6123664;23;20033;-72
2022/11/14 11:34:52;;;;;;;5.97;1.48;;;;;;;;;;6123970;23;20028;-72
2022/11/14 11:37:22;;;;;;;5.57;1.80;;;;;;;;;;6122819;23;20053;-72
2022/11/14 11:39:53;;;;;;;2.22;1.48;;;;;;;;;;6123745;23;20026;-72
2022/11/14 11:42:24;;;;;;;3.55;1.67;;;;;;;;;;6123908;23;20100;-72
2022/11/14 11:44:57;;;;;;;2.70;1.80;;;;;;;;;;6123906;23;20053;-71
2022/11/14 11:47:26;;;;;;;3.40;1.38;;;;;;;;;;6123777;23;20463;-72
2022/11/14 11:49:54;;;;;;;2.28;1.42;;;;;;;;;;6124188;23;20022;-72
2022/11/14 11:52:28;;;;;;;4.70;1.90;;;;;;;;;;6123470;23;20038;-72
2022/11/14 11:55:00;;;;;;;5.28;1.92;;;;;;;;;;6123786;23;20025;-71
2022/11/14 11:57:32;;;;;;;1.48;1.20;;;;;;;;;;6122974;23;20109;-72
2022/11/14 12:00:06;;;;;;;8.32;1.85;;;;;;;;;;6124371;23;20061;-72
2022/11/14 12:02:37;;;;;;;3.65;1.42;;;;;;;;;;6123422;23;20028;-72
2022/11/14 12:05:06;;;;;;;4.35;2.10;;;;;;;;;;6124347;23;20042;-72
2022/11/14 12:07:39;;;;;;;1.85;1.00;;;;;;;;;;6123668;23;20025;-72
2022/11/14 12:10:13;;;;;;;3.70;1.77;;;;;;;;;;6122941;23;20384;-71
2022/11/14 12:13:05;;;;;;;2.55;2.13;;;;;;;;;;6123528;23;20049;-72
2022/11/14 12:15:41;;;;;;;3.45;1.85;;;;;;;;;;6122651;23;20026;-72
2022/11/14 12:18:24;;;;;;;5.00;2.50;;;;;;;;;;6123099;23;20049;-72
2022/11/14 12:21:08;;;;;;;1.80;1.70;;;;;;;;;;6122335;23;20053;-72
2022/11/14 12:23:59;;;;;;;3.72;1.77;;;;;;;;;;6120416;23;20022;-71
2022/11/14 12:26:39;;;;;;;1.33;0.88;;;;;;;;;;6123941;23;20460;-72
2022/11/14 12:29:25;;;;;;;2.08;1.48;;;;;;;;;;6123039;23;20030;-72
2022/11/14 12:31:58;;;;;;;3.30;1.63;;;;;;;;;;6122838;23;20060;-71
2022/11/14 12:34:29;;;;;;;1.70;1.35;;;;;;;;;;6124767;23;20085;-72
2022/11/14 12:36:58;;;;;;;4.93;1.80;;;;;;;;;;6123015;23;20033;-71
2022/11/14 12:39:27;;;;;;;7.55;1.75;;;;;;;;;;6122899;23;20030;-72
2022/11/14 12:42:03;;;;;;;1.45;1.33;;;;;;;;;;6121200;23;20053;-71
2022/11/14 12:44:34;;;;;;;3.72;2.03;;;;;;;;;;6122785;23;20018;-72
2022/11/14 12:47:15;;;;;;;3.35;1.52;;;;;;;;;;6123485;23;20018;-72
2022/11/14 12:50:17;;;;;;;9.02;1.77;;;;;;;;;;6123305;23;20475;-72
2022/11/14 12:52:48;;;;;;;3.28;1.50;;;;;;;;;;6031675;23;20102;-72
2022/11/14 12:55:35;;;;;;;4.72;2.08;;;;;;;;;;6034537;23;20023;-72
2022/11/14 12:58:07;;;;;;;5.43;2.15;;;;;;;;;;6087399;23;20518;-73
2022/11/14 13:00:38;;;;;;;2.38;1.55;;;;;;;;;;6123602;23;20022;-72
2022/11/14 13:03:24;;;;;;;4.78;1.60;;;;;;;;;;6123849;23;20369;-72
2022/11/14 13:05:56;;;;;;;4.85;1.60;;;;;;;;;;6125312;23;20451;-71
2022/11/14 13:08:43;;;;;;;1.63;1.33;;;;;;;;;;6125452;23;20021;-71
2022/11/14 13:21:44;;;;;;;2.97;1.67;;;;;;;;;;6124478;23;20030;-71
2022/11/14 13:22:45;;;;;;;2.97;1.10;;;;;;;;;;6123715;23;20396;-73
2022/11/14 13:25:22;;;;;;;3.38;1.67;;;;;;;;;;6125896;23;20063;-73
2022/11/14 13:27:54;;;;;;;2.90;1.60;;;;;;;;;;6124130;23;20036;-73
2022/11/14 13:31:01;;;;;;;2.67;1.98;;;;;;;;;;6123806;23;20478;-72
2022/11/14 13:33:42;;;;;;;3.40;1.38;;;;;;;;;;6124210;23;20022;-74
2022/11/14 13:36:19;;;;;;;2.15;0.93;;;;;;;;;;6123922;23;20054;-74
2022/11/14 13:39:14;;;;;;;1.08;0.93;;;;;;;;;;6125092;23;20085;-73
2022/11/14 13:42:04;;;;;;;1.55;1.10;;;;;;;;;;6072752;23;20029;-73
2022/11/14 13:44:55;;;;;;;4.28;1.50;;;;;;;;;;6116473;23;20077;-74
2022/11/14 13:47:39;;;;;;;2.72;1.15;;;;;;;;;;6120870;23;20028;-73
2022/11/14 13:50:09;;;;;;;2.40;1.20;;;;;;;;;;6122791;23;20326;-74
2022/11/14 13:52:43;;;;;;;2.28;1.00;;;;;;;;;;6121691;23;20105;-72
2022/11/14 13:55:20;;;;;;;2.15;1.02;;;;;;;;;;6123718;23;20463;-73
2022/11/14 13:57:57;;;;;;;10.75;1.27;;;;;;;;;;6122148;23;20086;-73
2022/11/14 14:00:26;;;;;;;1.58;1.13;;;;;;;;;;6123463;23;20320;-73
2022/11/14 14:03:12;;;;;;;1.08;0.77;;;;;;;;;;6124767;23;20018;-76
2022/11/14 14:05:49;;;;;;;3.03;1.50;;;;;;;;;;6125270;23;20064;-73
2022/11/14 14:08:30;;;;;;;1.10;0.73;;;;;;;;;;6124912;23;20026;-75
2022/11/14 14:11:03;;;;;;;2.05;1.08;;;;;;;;;;6124714;23;20022;-74
2022/11/14 14:13:39;;;;;;;2.15;1.20;;;;;;;;;;6124259;23;20026;-74
2022/11/14 14:16:12;;;;;;;1.10;1.00;;;;;;;;;;6124794;23;20018;-73
2022/11/14 14:18:45;;;;;;;1.30;1.08;;;;;;;;;;6125393;23;20081;-74
2022/11/14 14:21:18;;;;;;;2.45;1.00;;;;;;;;;;6124936;23;20128;-74
2022/11/14 14:23:49;;;;;;;3.42;1.17;;;;;;;;;;6125347;23;20026;-75
2022/11/14 14:26:20;;;;;;;1.77;0.75;;;;;;;;;;6121376;23;20029;-74
2022/11/14 14:28:52;;;;;;;1.60;1.38;;;;;;;;;;6120643;23;20018;-74
2022/11/14 14:31:22;;;;;;;1.33;1.00;;;;;;;;;;6119933;23;20041;-74
2022/11/14 14:33:51;;;;;;;4.85;1.30;;;;;;;;;;6121002;23;20097;-74
2022/11/14 14:36:21;;;;;;;2.15;1.10;;;;;;;;;;6120446;23;20101;-72
2022/11/14 14:38:51;;;;;;;2.90;1.27;;;;;;;;;;6120857;23;20022;-72
2022/11/14 14:41:20;;;;;;;1.75;0.82;;;;;;;;;;6123269;23;20066;-72
2022/11/14 14:43:54;;;;;;;2.35;0.93;;;;;;;;;;6124428;23;20463;-72
2022/11/14 14:46:32;;;;;;;1.58;0.98;;;;;;;;;;6124683;23;20033;-72
2022/11/14 14:49:03;;;;;;;3.20;1.15;;;;;;;;;;6124767;23;20025;-72
2022/11/14 14:51:32;;;;;;;1.65;1.17;;;;;;;;;;6122927;23;20034;-72
2022/11/14 14:54:02;;;;;;;1.90;1.10;;;;;;;;;;6124602;23;20018;-72
2022/11/14 14:56:31;;;;;;;2.08;0.80;;;;;;;;;;6124162;23;20053;-72
2022/11/14 14:59:15;;;;;;;2.15;0.68;;;;;;;;;;6122575;23;20040;-72
2022/11/14 15:01:44;;;;;;;1.40;1.25;;;;;;;;;;6117589;23;20340;-72
2022/11/14 15:04:15;;;;;;;2.75;1.55;;;;;;;;;;6123036;23;20018;-71
2022/11/14 15:06:45;;;;;;;2.40;1.38;;;;;;;;;;6123977;23;20104;-72
2022/11/14 15:09:18;;;;;;;1.58;1.33;;;;;;;;;;6123456;23;20096;-71
2022/11/14 15:11:48;;;;;;;5.57;1.27;;;;;;;;;;6122764;23;20022;-72
2022/11/14 15:14:17;;;;;;;4.20;1.55;;;;;;;;;;6118377;23;20174;-72
2022/11/14 15:16:48;;;;;;;2.78;1.45;;;;;;;;;;6120030;23;20044;-72
2022/11/14 15:19:18;;;;;;;2.42;1.15;;;;;;;;;;6119295;23;20029;-72